sensor_id;sensor_type;location;lat;lon;timestamp;P1;durP1;ratioP1;P2;durP2;ratioP2
2225;SDS011;1119;48.288;8.726;2022-09-14T00:00:50;6.03;;;5.73;;
2225;SDS011;1119;48.288;8.726;2022-09-14T00:03:18;6.60;;;6.20;;
2225;SDS011;1119;48.288;8.726;2022-09-14T00:05:46;5.70;;;5.40;;
2225;SDS011;1119;48.288;8.726;2022-09-14T00:08:14;5.90;;;5.40;;
2225;SDS011;1119;48.288;8.726;2022-09-14T00:10:41;5.87;;;5.47;;
2225;SDS011;1119;48.288;8.726;2022-09-14T00:13:10;5.10;;;4.90;;
2225;SDS011;1119;48.288;8.726;2022-09-14T00:15:39;5.57;;;5.30;;
2225;SDS011;1119;48.288;8.726;2022-09-14T00:18:09;5.43;;;5.13;;
2225;SDS011;1119;48.288;8.726;2022-09-14T00:20:37;5.53;;;5.23;;
2225;SDS011;1119;48.288;8.726;2022-09-14T00:23:06;5.87;;;5.53;;
2225;SDS011;1119;48.288;8.726;2022-09-14T00:25:33;5.37;;;5.07;;
2225;SDS011;1119;48.288;8.726;2022-09-14T00:28:00;5.43;;;5.23;;
2225;SDS011;1119;48.288;8.726;2022-09-14T00:30:28;5.20;;;4.80;;
2225;SDS011;1119;48.288;8.726;2022-09-14T00:32:55;5.80;;;5.50;;
2225;SDS011;1119;48.288;8.726;2022-09-14T00:35:22;5.80;;;5.30;;
2225;SDS011;1119;48.288;8.726;2022-09-14T00:37:50;5.83;;;5.30;;
2225;SDS011;1119;48.288;8.726;2022-09-14T00:40:18;4.83;;;4.53;;
2225;SDS011;1119;48.288;8.726;2022-09-14T00:42:46;5.00;;;4.80;;
2225;SDS011;1119;48.288;8.726;2022-09-14T00:45:19;6.23;;;5.80;;
2225;SDS011;1119;48.288;8.726;2022-09-14T00:47:48;6.60;;;6.10;;
2225;SDS011;1119;48.288;8.726;2022-09-14T00:50:18;5.70;;;5.00;;
2225;SDS011;1119;48.288;8.726;2022-09-14T00:52:47;5.37;;;5.17;;
2225;SDS011;1119;48.288;8.726;2022-09-14T00:55:16;5.53;;;5.23;;
2225;SDS011;1119;48.288;8.726;2022-09-14T00:57:49;5.63;;;5.23;;
2225;SDS011;1119;48.288;8.726;2022-09-14T01:00:19;4.90;;;4.70;;
2225;SDS011;1119;48.288;8.726;2022-09-14T01:02:49;5.43;;;5.20;;
2225;SDS011;1119;48.288;8.726;2022-09-14T01:05:16;6.00;;;5.70;;
2225;SDS011;1119;48.288;8.726;2022-09-14T01:07:53;7.10;;;4.60;;
2225;SDS011;1119;48.288;8.726;2022-09-14T01:10:52;5.70;;;5.30;;
2225;SDS011;1119;48.288;8.726;2022-09-14T01:13:35;4.83;;;4.63;;
2225;SDS011;1119;48.288;8.726;2022-09-14T01:16:09;5.00;;;4.77;;
2225;SDS011;1119;48.288;8.726;2022-09-14T01:18:44;5.73;;;5.43;;
2225;SDS011;1119;48.288;8.726;2022-09-14T01:21:18;5.40;;;5.10;;
2225;SDS011;1119;48.288;8.726;2022-09-14T01:23:52;6.10;;;5.70;;
2225;SDS011;1119;48.288;8.726;2022-09-14T01:26:32;5.30;;;5.00;;
2225;SDS011;1119;48.288;8.726;2022-09-14T01:29:30;6.90;;;6.53;;
2225;SDS011;1119;48.288;8.726;2022-09-14T01:32:01;5.80;;;5.30;;
2225;SDS011;1119;48.288;8.726;2022-09-14T01:34:35;5.00;;;4.80;;
2225;SDS011;1119;48.288;8.726;2022-09-14T01:37:10;6.17;;;5.87;;
2225;SDS011;1119;48.288;8.726;2022-09-14T01:39:43;5.40;;;5.00;;
2225;SDS011;1119;48.288;8.726;2022-09-14T01:42:17;7.30;;;5.73;;
2225;SDS011;1119;48.288;8.726;2022-09-14T01:44:47;6.03;;;5.50;;
2225;SDS011;1119;48.288;8.726;2022-09-14T01:47:19;5.87;;;5.47;;
2225;SDS011;1119;48.288;8.726;2022-09-14T01:49:52;6.33;;;5.80;;
2225;SDS011;1119;48.288;8.726;2022-09-14T01:52:26;5.17;;;4.93;;
2225;SDS011;1119;48.288;8.726;2022-09-14T01:55:04;6.20;;;5.70;;
2225;SDS011;1119;48.288;8.726;2022-09-14T01:57:38;5.77;;;5.47;;
2225;SDS011;1119;48.288;8.726;2022-09-14T02:00:11;5.77;;;5.40;;
2225;SDS011;1119;48.288;8.726;2022-09-14T02:02:42;5.57;;;5.17;;
2225;SDS011;1119;48.288;8.726;2022-09-14T02:05:14;5.87;;;5.57;;
2225;SDS011;1119;48.288;8.726;2022-09-14T02:07:46;5.40;;;5.00;;
2225;SDS011;1119;48.288;8.726;2022-09-14T02:10:14;5.73;;;5.43;;
2225;SDS011;1119;48.288;8.726;2022-09-14T02:12:44;7.30;;;5.73;;
2225;SDS011;1119;48.288;8.726;2022-09-14T02:15:12;5.10;;;4.90;;
2225;SDS011;1119;48.288;8.726;2022-09-14T02:17:41;5.80;;;5.50;;
2225;SDS011;1119;48.288;8.726;2022-09-14T02:20:12;5.93;;;5.63;;
2225;SDS011;1119;48.288;8.726;2022-09-14T02:22:45;5.93;;;5.63;;
2225;SDS011;1119;48.288;8.726;2022-09-14T02:25:13;5.53;;;5.20;;
2225;SDS011;1119;48.288;8.726;2022-09-14T02:27:40;7.80;;;5.70;;
2225;SDS011;1119;48.288;8.726;2022-09-14T02:30:12;5.00;;;4.80;;
2225;SDS011;1119;48.288;8.726;2022-09-14T02:32:44;5.00;;;4.70;;
2225;SDS011;1119;48.288;8.726;2022-09-14T02:35:22;5.77;;;5.30;;
2225;SDS011;1119;48.288;8.726;2022-09-14T02:37:55;5.20;;;4.90;;
2225;SDS011;1119;48.288;8.726;2022-09-14T02:40:32;5.30;;;4.90;;
2225;SDS011;1119;48.288;8.726;2022-09-14T02:43:05;5.63;;;5.33;;
2225;SDS011;1119;48.288;8.726;2022-09-14T02:45:46;7.00;;;6.53;;
2225;SDS011;1119;48.288;8.726;2022-09-14T02:48:23;6.20;;;5.80;;
2225;SDS011;1119;48.288;8.726;2022-09-14T02:51:02;4.90;;;4.60;;
2225;SDS011;1119;48.288;8.726;2022-09-14T02:53:41;5.10;;;4.90;;
2225;SDS011;1119;48.288;8.726;2022-09-14T02:56:14;4.50;;;4.30;;
2225;SDS011;1119;48.288;8.726;2022-09-14T02:58:43;5.50;;;5.00;;
2225;SDS011;1119;48.288;8.726;2022-09-14T03:01:13;6.20;;;5.60;;
2225;SDS011;1119;48.288;8.726;2022-09-14T03:03:42;4.97;;;4.67;;
2225;SDS011;1119;48.288;8.726;2022-09-14T03:06:09;5.40;;;5.10;;
2225;SDS011;1119;48.288;8.726;2022-09-14T03:08:36;5.30;;;5.00;;
2225;SDS011;1119;48.288;8.726;2022-09-14T03:11:03;4.53;;;4.33;;
2225;SDS011;1119;48.288;8.726;2022-09-14T03:13:31;5.50;;;5.00;;
2225;SDS011;1119;48.288;8.726;2022-09-14T03:16:02;5.40;;;5.10;;
2225;SDS011;1119;48.288;8.726;2022-09-14T03:18:32;5.87;;;5.57;;
2225;SDS011;1119;48.288;8.726;2022-09-14T03:21:00;6.80;;;5.87;;
2225;SDS011;1119;48.288;8.726;2022-09-14T03:23:29;5.70;;;5.20;;
2225;SDS011;1119;48.288;8.726;2022-09-14T03:25:56;5.40;;;5.10;;
2225;SDS011;1119;48.288;8.726;2022-09-14T03:28:23;5.60;;;5.30;;
2225;SDS011;1119;48.288;8.726;2022-09-14T03:30:50;5.80;;;5.40;;
2225;SDS011;1119;48.288;8.726;2022-09-14T03:33:17;6.57;;;6.07;;
2225;SDS011;1119;48.288;8.726;2022-09-14T03:35:46;5.83;;;5.27;;
2225;SDS011;1119;48.288;8.726;2022-09-14T03:38:13;5.37;;;4.87;;
2225;SDS011;1119;48.288;8.726;2022-09-14T03:40:40;5.37;;;5.07;;
2225;SDS011;1119;48.288;8.726;2022-09-14T03:43:07;6.00;;;5.80;;
2225;SDS011;1119;48.288;8.726;2022-09-14T03:45:36;6.20;;;5.90;;
2225;SDS011;1119;48.288;8.726;2022-09-14T03:48:03;6.17;;;5.87;;
2225;SDS011;1119;48.288;8.726;2022-09-14T03:50:31;5.90;;;5.50;;
2225;SDS011;1119;48.288;8.726;2022-09-14T03:53:00;5.60;;;5.30;;
2225;SDS011;1119;48.288;8.726;2022-09-14T03:55:28;6.27;;;5.70;;
2225;SDS011;1119;48.288;8.726;2022-09-14T03:57:56;6.33;;;5.73;;
2225;SDS011;1119;48.288;8.726;2022-09-14T04:00:23;6.07;;;5.37;;
2225;SDS011;1119;48.288;8.726;2022-09-14T04:02:50;7.03;;;6.40;;
2225;SDS011;1119;48.288;8.726;2022-09-14T04:05:17;6.47;;;5.87;;
2225;SDS011;1119;48.288;8.726;2022-09-14T04:07:44;6.07;;;5.47;;
2225;SDS011;1119;48.288;8.726;2022-09-14T04:10:12;5.40;;;5.10;;
2225;SDS011;1119;48.288;8.726;2022-09-14T04:12:39;6.27;;;5.73;;
2225;SDS011;1119;48.288;8.726;2022-09-14T04:15:07;5.90;;;5.40;;
2225;SDS011;1119;48.288;8.726;2022-09-14T04:17:35;5.77;;;5.47;;
2225;SDS011;1119;48.288;8.726;2022-09-14T04:20:02;5.80;;;5.47;;
2225;SDS011;1119;48.288;8.726;2022-09-14T04:22:30;6.15;;;5.75;;
2225;SDS011;1119;48.288;8.726;2022-09-14T04:24:59;7.00;;;6.60;;
2225;SDS011;1119;48.288;8.726;2022-09-14T04:27:27;6.77;;;6.47;;
2225;SDS011;1119;48.288;8.726;2022-09-14T04:29:55;6.03;;;5.63;;
2225;SDS011;1119;48.288;8.726;2022-09-14T04:32:22;6.70;;;6.30;;
2225;SDS011;1119;48.288;8.726;2022-09-14T04:34:50;6.53;;;6.13;;
2225;SDS011;1119;48.288;8.726;2022-09-14T04:37:17;7.20;;;6.70;;
2225;SDS011;1119;48.288;8.726;2022-09-14T04:39:44;6.20;;;5.60;;
2225;SDS011;1119;48.288;8.726;2022-09-14T04:42:11;6.70;;;6.30;;
2225;SDS011;1119;48.288;8.726;2022-09-14T04:44:39;7.27;;;6.20;;
2225;SDS011;1119;48.288;8.726;2022-09-14T04:47:06;6.43;;;6.20;;
2225;SDS011;1119;48.288;8.726;2022-09-14T04:49:33;6.50;;;6.10;;
2225;SDS011;1119;48.288;8.726;2022-09-14T04:52:01;7.63;;;7.13;;
2225;SDS011;1119;48.288;8.726;2022-09-14T04:54:28;6.23;;;5.80;;
2225;SDS011;1119;48.288;8.726;2022-09-14T04:56:55;6.63;;;6.20;;
2225;SDS011;1119;48.288;8.726;2022-09-14T04:59:22;6.47;;;5.97;;
2225;SDS011;1119;48.288;8.726;2022-09-14T05:01:50;5.77;;;5.47;;
2225;SDS011;1119;48.288;8.726;2022-09-14T05:04:17;6.90;;;6.50;;
2225;SDS011;1119;48.288;8.726;2022-09-14T05:06:44;6.47;;;6.07;;
2225;SDS011;1119;48.288;8.726;2022-09-14T05:09:12;5.53;;;5.33;;
2225;SDS011;1119;48.288;8.726;2022-09-14T05:11:54;5.40;;;5.20;;
2225;SDS011;1119;48.288;8.726;2022-09-14T05:14:21;4.93;;;4.73;;
2225;SDS011;1119;48.288;8.726;2022-09-14T05:16:48;5.40;;;5.20;;
2225;SDS011;1119;48.288;8.726;2022-09-14T05:19:17;5.27;;;4.97;;
2225;SDS011;1119;48.288;8.726;2022-09-14T05:21:44;5.70;;;5.30;;
2225;SDS011;1119;48.288;8.726;2022-09-14T05:24:12;5.73;;;5.30;;
2225;SDS011;1119;48.288;8.726;2022-09-14T05:26:41;7.60;;;5.60;;
2225;SDS011;1119;48.288;8.726;2022-09-14T05:29:11;6.07;;;5.77;;
2225;SDS011;1119;48.288;8.726;2022-09-14T05:31:39;6.10;;;5.80;;
2225;SDS011;1119;48.288;8.726;2022-09-14T05:34:09;5.77;;;5.30;;
2225;SDS011;1119;48.288;8.726;2022-09-14T05:36:37;6.17;;;5.77;;
2225;SDS011;1119;48.288;8.726;2022-09-14T05:39:05;6.60;;;6.10;;
2225;SDS011;1119;48.288;8.726;2022-09-14T05:41:33;6.13;;;5.63;;
2225;SDS011;1119;48.288;8.726;2022-09-14T05:44:01;6.07;;;5.73;;
2225;SDS011;1119;48.288;8.726;2022-09-14T05:46:29;6.53;;;6.13;;
2225;SDS011;1119;48.288;8.726;2022-09-14T05:48:56;7.07;;;6.57;;
2225;SDS011;1119;48.288;8.726;2022-09-14T05:51:25;7.23;;;6.83;;
2225;SDS011;1119;48.288;8.726;2022-09-14T05:53:53;7.43;;;7.03;;
2225;SDS011;1119;48.288;8.726;2022-09-14T05:56:22;8.07;;;6.90;;
2225;SDS011;1119;48.288;8.726;2022-09-14T05:58:52;7.93;;;7.43;;
2225;SDS011;1119;48.288;8.726;2022-09-14T06:01:20;6.00;;;5.70;;
2225;SDS011;1119;48.288;8.726;2022-09-14T06:03:48;6.77;;;6.23;;
2225;SDS011;1119;48.288;8.726;2022-09-14T06:06:17;11.50;;;8.60;;
2225;SDS011;1119;48.288;8.726;2022-09-14T06:08:47;6.60;;;6.10;;
2225;SDS011;1119;48.288;8.726;2022-09-14T06:11:17;7.60;;;7.00;;
2225;SDS011;1119;48.288;8.726;2022-09-14T06:13:46;6.37;;;6.07;;
2225;SDS011;1119;48.288;8.726;2022-09-14T06:16:14;7.60;;;7.10;;
2225;SDS011;1119;48.288;8.726;2022-09-14T06:18:44;8.10;;;7.60;;
2225;SDS011;1119;48.288;8.726;2022-09-14T06:21:13;6.73;;;6.40;;
2225;SDS011;1119;48.288;8.726;2022-09-14T06:23:43;7.03;;;6.73;;
2225;SDS011;1119;48.288;8.726;2022-09-14T06:26:12;7.33;;;6.93;;
2225;SDS011;1119;48.288;8.726;2022-09-14T06:28:40;8.97;;;7.20;;
2225;SDS011;1119;48.288;8.726;2022-09-14T06:31:10;12.37;;;11.57;;
2225;SDS011;1119;48.288;8.726;2022-09-14T06:33:41;11.30;;;10.40;;
2225;SDS011;1119;48.288;8.726;2022-09-14T06:36:10;11.00;;;10.20;;
2225;SDS011;1119;48.288;8.726;2022-09-14T06:38:38;12.83;;;11.73;;
2225;SDS011;1119;48.288;8.726;2022-09-14T06:41:07;11.13;;;9.80;;
2225;SDS011;1119;48.288;8.726;2022-09-14T06:43:39;6.13;;;5.77;;
2225;SDS011;1119;48.288;8.726;2022-09-14T06:46:09;13.93;;;12.90;;
2225;SDS011;1119;48.288;8.726;2022-09-14T06:48:39;13.23;;;12.17;;
2225;SDS011;1119;48.288;8.726;2022-09-14T06:51:10;9.70;;;9.07;;
2225;SDS011;1119;48.288;8.726;2022-09-14T06:53:40;15.13;;;13.90;;
2225;SDS011;1119;48.288;8.726;2022-09-14T06:56:07;11.67;;;10.67;;
2225;SDS011;1119;48.288;8.726;2022-09-14T06:58:34;13.50;;;12.40;;
2225;SDS011;1119;48.288;8.726;2022-09-14T07:01:03;11.27;;;10.00;;
2225;SDS011;1119;48.288;8.726;2022-09-14T07:03:33;11.70;;;10.77;;
2225;SDS011;1119;48.288;8.726;2022-09-14T07:06:02;12.07;;;11.23;;
2225;SDS011;1119;48.288;8.726;2022-09-14T07:08:32;16.93;;;15.23;;
2225;SDS011;1119;48.288;8.726;2022-09-14T07:10:59;10.40;;;9.63;;
2225;SDS011;1119;48.288;8.726;2022-09-14T07:13:27;14.97;;;13.67;;
2225;SDS011;1119;48.288;8.726;2022-09-14T07:15:55;10.33;;;9.63;;
2225;SDS011;1119;48.288;8.726;2022-09-14T07:18:24;11.70;;;10.70;;
2225;SDS011;1119;48.288;8.726;2022-09-14T07:20:53;9.50;;;8.80;;
2225;SDS011;1119;48.288;8.726;2022-09-14T07:23:20;9.33;;;7.87;;
2225;SDS011;1119;48.288;8.726;2022-09-14T07:25:57;12.70;;;11.50;;
2225;SDS011;1119;48.288;8.726;2022-09-14T07:28:26;8.67;;;7.90;;
2225;SDS011;1119;48.288;8.726;2022-09-14T07:30:53;9.00;;;8.30;;
2225;SDS011;1119;48.288;8.726;2022-09-14T07:33:20;8.60;;;7.97;;
2225;SDS011;1119;48.288;8.726;2022-09-14T07:35:49;9.40;;;8.67;;
2225;SDS011;1119;48.288;8.726;2022-09-14T07:38:17;9.43;;;8.73;;
2225;SDS011;1119;48.288;8.726;2022-09-14T07:40:44;9.07;;;8.37;;
2225;SDS011;1119;48.288;8.726;2022-09-14T07:43:12;8.90;;;8.20;;
2225;SDS011;1119;48.288;8.726;2022-09-14T07:45:39;7.03;;;6.33;;
2225;SDS011;1119;48.288;8.726;2022-09-14T07:48:06;8.80;;;8.20;;
2225;SDS011;1119;48.288;8.726;2022-09-14T07:50:33;8.00;;;7.40;;
2225;SDS011;1119;48.288;8.726;2022-09-14T07:53:01;7.93;;;7.43;;
2225;SDS011;1119;48.288;8.726;2022-09-14T07:55:28;8.03;;;7.53;;
2225;SDS011;1119;48.288;8.726;2022-09-14T07:57:56;8.43;;;7.70;;
2225;SDS011;1119;48.288;8.726;2022-09-14T08:00:23;6.47;;;6.17;;
2225;SDS011;1119;48.288;8.726;2022-09-14T08:02:51;6.03;;;5.73;;
2225;SDS011;1119;48.288;8.726;2022-09-14T08:05:19;7.33;;;6.93;;
2225;SDS011;1119;48.288;8.726;2022-09-14T08:07:46;7.23;;;6.80;;
2225;SDS011;1119;48.288;8.726;2022-09-14T08:10:20;5.43;;;5.10;;
2225;SDS011;1119;48.288;8.726;2022-09-14T08:12:49;7.30;;;6.90;;
2225;SDS011;1119;48.288;8.726;2022-09-14T08:15:17;6.57;;;6.27;;
2225;SDS011;1119;48.288;8.726;2022-09-14T08:17:44;6.90;;;6.53;;
2225;SDS011;1119;48.288;8.726;2022-09-14T08:20:11;7.40;;;6.90;;
2225;SDS011;1119;48.288;8.726;2022-09-14T08:22:40;6.63;;;6.33;;
2225;SDS011;1119;48.288;8.726;2022-09-14T08:25:08;6.40;;;6.10;;
2225;SDS011;1119;48.288;8.726;2022-09-14T08:27:37;6.37;;;6.07;;
2225;SDS011;1119;48.288;8.726;2022-09-14T08:30:04;10.33;;;7.57;;
2225;SDS011;1119;48.288;8.726;2022-09-14T08:32:34;6.37;;;6.00;;
2225;SDS011;1119;48.288;8.726;2022-09-14T08:35:01;7.00;;;6.60;;
2225;SDS011;1119;48.288;8.726;2022-09-14T08:37:28;6.27;;;5.77;;
2225;SDS011;1119;48.288;8.726;2022-09-14T08:39:55;6.67;;;6.20;;
2225;SDS011;1119;48.288;8.726;2022-09-14T08:42:22;7.43;;;6.83;;
2225;SDS011;1119;48.288;8.726;2022-09-14T08:44:52;6.85;;;6.45;;
2225;SDS011;1119;48.288;8.726;2022-09-14T08:47:23;7.23;;;6.73;;
2225;SDS011;1119;48.288;8.726;2022-09-14T08:49:54;6.90;;;6.37;;
2225;SDS011;1119;48.288;8.726;2022-09-14T08:52:26;7.90;;;6.03;;
2225;SDS011;1119;48.288;8.726;2022-09-14T08:54:58;5.90;;;5.50;;
2225;SDS011;1119;48.288;8.726;2022-09-14T08:57:30;5.30;;;5.00;;
2225;SDS011;1119;48.288;8.726;2022-09-14T09:03:38;6.27;;;5.53;;
2225;SDS011;1119;48.288;8.726;2022-09-14T09:06:32;9.20;;;5.57;;
2225;SDS011;1119;48.288;8.726;2022-09-14T09:09:11;6.60;;;6.00;;
2225;SDS011;1119;48.288;8.726;2022-09-14T09:11:49;5.67;;;5.40;;
2225;SDS011;1119;48.288;8.726;2022-09-14T09:14:30;6.63;;;6.23;;
2225;SDS011;1119;48.288;8.726;2022-09-14T09:17:02;6.10;;;5.60;;
2225;SDS011;1119;48.288;8.726;2022-09-14T09:19:46;5.97;;;5.23;;
2225;SDS011;1119;48.288;8.726;2022-09-14T09:22:22;6.23;;;5.83;;
2225;SDS011;1119;48.288;8.726;2022-09-14T09:24:52;5.40;;;4.90;;
2225;SDS011;1119;48.288;8.726;2022-09-14T09:27:21;5.60;;;5.30;;
2225;SDS011;1119;48.288;8.726;2022-09-14T09:29:50;4.77;;;4.67;;
2225;SDS011;1119;48.288;8.726;2022-09-14T09:32:19;5.83;;;5.33;;
2225;SDS011;1119;48.288;8.726;2022-09-14T09:34:51;5.87;;;5.57;;
2225;SDS011;1119;48.288;8.726;2022-09-14T09:37:28;6.33;;;5.70;;
2225;SDS011;1119;48.288;8.726;2022-09-14T09:40:01;5.83;;;5.43;;
2225;SDS011;1119;48.288;8.726;2022-09-14T09:42:34;5.87;;;5.10;;
2225;SDS011;1119;48.288;8.726;2022-09-14T09:45:02;5.30;;;5.00;;
2225;SDS011;1119;48.288;8.726;2022-09-14T09:47:31;5.23;;;4.90;;
2225;SDS011;1119;48.288;8.726;2022-09-14T09:50:02;5.00;;;4.47;;
2225;SDS011;1119;48.288;8.726;2022-09-14T09:52:32;6.03;;;5.63;;
2225;SDS011;1119;48.288;8.726;2022-09-14T09:55:00;5.07;;;4.77;;
2225;SDS011;1119;48.288;8.726;2022-09-14T09:57:31;5.10;;;4.80;;
2225;SDS011;1119;48.288;8.726;2022-09-14T10:00:08;5.33;;;4.97;;
2225;SDS011;1119;48.288;8.726;2022-09-14T10:02:45;5.53;;;5.03;;
2225;SDS011;1119;48.288;8.726;2022-09-14T10:05:22;4.90;;;4.60;;
2225;SDS011;1119;48.288;8.726;2022-09-14T10:07:54;5.50;;;5.10;;
2225;SDS011;1119;48.288;8.726;2022-09-14T10:10:25;5.30;;;5.00;;
2225;SDS011;1119;48.288;8.726;2022-09-14T10:13:14;5.13;;;4.73;;
2225;SDS011;1119;48.288;8.726;2022-09-14T10:15:50;5.70;;;5.27;;
2225;SDS011;1119;48.288;8.726;2022-09-14T10:18:18;6.30;;;5.93;;
2225;SDS011;1119;48.288;8.726;2022-09-14T10:23:34;4.93;;;4.73;;
2225;SDS011;1119;48.288;8.726;2022-09-14T10:29:21;5.70;;;5.40;;
2225;SDS011;1119;48.288;8.726;2022-09-14T10:31:57;6.90;;;6.50;;
2225;SDS011;1119;48.288;8.726;2022-09-14T10:34:30;4.90;;;4.70;;
2225;SDS011;1119;48.288;8.726;2022-09-14T10:37:03;5.40;;;5.10;;
2225;SDS011;1119;48.288;8.726;2022-09-14T10:39:43;4.77;;;4.57;;
2225;SDS011;1119;48.288;8.726;2022-09-14T10:42:18;7.27;;;4.57;;
2225;SDS011;1119;48.288;8.726;2022-09-14T10:44:58;5.50;;;5.20;;
2225;SDS011;1119;48.288;8.726;2022-09-14T10:47:43;5.27;;;4.77;;
2225;SDS011;1119;48.288;8.726;2022-09-14T10:50:36;6.30;;;5.90;;
2225;SDS011;1119;48.288;8.726;2022-09-14T10:53:18;4.87;;;4.60;;
2225;SDS011;1119;48.288;8.726;2022-09-14T10:56:07;5.50;;;5.30;;
2225;SDS011;1119;48.288;8.726;2022-09-14T10:58:51;5.63;;;5.10;;
2225;SDS011;1119;48.288;8.726;2022-09-14T11:01:38;5.43;;;5.10;;
2225;SDS011;1119;48.288;8.726;2022-09-14T11:04:47;5.60;;;4.97;;
2225;SDS011;1119;48.288;8.726;2022-09-14T11:07:34;6.20;;;5.40;;
2225;SDS011;1119;48.288;8.726;2022-09-14T11:10:16;5.33;;;5.07;;
2225;SDS011;1119;48.288;8.726;2022-09-14T11:12:52;5.97;;;5.57;;
2225;SDS011;1119;48.288;8.726;2022-09-14T11:15:40;5.40;;;5.10;;
2225;SDS011;1119;48.288;8.726;2022-09-14T11:18:16;5.90;;;5.40;;
2225;SDS011;1119;48.288;8.726;2022-09-14T11:20:51;5.80;;;5.50;;
2225;SDS011;1119;48.288;8.726;2022-09-14T11:23:35;7.57;;;6.80;;
2225;SDS011;1119;48.288;8.726;2022-09-14T11:26:14;7.20;;;6.80;;
2225;SDS011;1119;48.288;8.726;2022-09-14T11:28:50;5.67;;;5.37;;
2225;SDS011;1119;48.288;8.726;2022-09-14T11:31:21;6.33;;;5.80;;
2225;SDS011;1119;48.288;8.726;2022-09-14T11:33:53;7.90;;;6.40;;
2225;SDS011;1119;48.288;8.726;2022-09-14T11:36:25;6.70;;;6.20;;
2225;SDS011;1119;48.288;8.726;2022-09-14T11:38:58;5.90;;;5.60;;
2225;SDS011;1119;48.288;8.726;2022-09-14T11:41:32;7.90;;;6.20;;
2225;SDS011;1119;48.288;8.726;2022-09-14T11:44:09;6.30;;;5.90;;
2225;SDS011;1119;48.288;8.726;2022-09-14T11:46:41;6.40;;;5.87;;
2225;SDS011;1119;48.288;8.726;2022-09-14T11:49:16;6.70;;;6.03;;
2225;SDS011;1119;48.288;8.726;2022-09-14T11:51:48;6.13;;;5.70;;
2225;SDS011;1119;48.288;8.726;2022-09-14T11:54:19;6.87;;;5.53;;
2225;SDS011;1119;48.288;8.726;2022-09-14T11:56:50;8.43;;;6.43;;
2225;SDS011;1119;48.288;8.726;2022-09-14T11:59:33;7.30;;;6.80;;
2225;SDS011;1119;48.288;8.726;2022-09-14T12:05:30;7.37;;;6.73;;
2225;SDS011;1119;48.288;8.726;2022-09-14T12:08:01;6.47;;;5.97;;
2225;SDS011;1119;48.288;8.726;2022-09-14T12:10:59;8.13;;;6.27;;
2225;SDS011;1119;48.288;8.726;2022-09-14T12:13:44;6.13;;;5.83;;
2225;SDS011;1119;48.288;8.726;2022-09-14T12:16:12;6.07;;;5.77;;
2225;SDS011;1119;48.288;8.726;2022-09-14T12:18:39;6.63;;;6.17;;
2225;SDS011;1119;48.288;8.726;2022-09-14T12:21:17;9.33;;;5.53;;
2225;SDS011;1119;48.288;8.726;2022-09-14T12:23:48;6.17;;;5.87;;
2225;SDS011;1119;48.288;8.726;2022-09-14T12:26:25;6.77;;;6.30;;
2225;SDS011;1119;48.288;8.726;2022-09-14T12:29:00;6.67;;;6.30;;
2225;SDS011;1119;48.288;8.726;2022-09-14T12:32:02;5.70;;;5.40;;
2225;SDS011;1119;48.288;8.726;2022-09-14T12:44:30;5.37;;;4.90;;
2225;SDS011;1119;48.288;8.726;2022-09-14T12:50:07;4.70;;;4.50;;
2225;SDS011;1119;48.288;8.726;2022-09-14T12:52:44;5.80;;;5.40;;
2225;SDS011;1119;48.288;8.726;2022-09-14T12:55:28;6.00;;;5.13;;
2225;SDS011;1119;48.288;8.726;2022-09-14T12:58:25;5.10;;;4.80;;
2225;SDS011;1119;48.288;8.726;2022-09-14T13:04:00;6.53;;;6.03;;
2225;SDS011;1119;48.288;8.726;2022-09-14T13:06:31;6.20;;;5.70;;
2225;SDS011;1119;48.288;8.726;2022-09-14T13:09:04;5.87;;;5.50;;
2225;SDS011;1119;48.288;8.726;2022-09-14T13:11:44;5.87;;;4.67;;
2225;SDS011;1119;48.288;8.726;2022-09-14T13:14:17;6.00;;;5.50;;
2225;SDS011;1119;48.288;8.726;2022-09-14T13:16:46;5.10;;;4.37;;
2225;SDS011;1119;48.288;8.726;2022-09-14T13:19:18;4.00;;;3.80;;
2225;SDS011;1119;48.288;8.726;2022-09-14T13:21:49;5.27;;;4.73;;
2225;SDS011;1119;48.288;8.726;2022-09-14T13:24:20;3.97;;;3.77;;
2225;SDS011;1119;48.288;8.726;2022-09-14T13:26:56;5.33;;;5.13;;
2225;SDS011;1119;48.288;8.726;2022-09-14T13:29:25;5.13;;;4.93;;
2225;SDS011;1119;48.288;8.726;2022-09-14T13:31:55;6.40;;;5.77;;
2225;SDS011;1119;48.288;8.726;2022-09-14T13:34:24;5.53;;;5.27;;
2225;SDS011;1119;48.288;8.726;2022-09-14T13:36:53;4.70;;;4.40;;
2225;SDS011;1119;48.288;8.726;2022-09-14T13:39:22;4.83;;;4.57;;
2225;SDS011;1119;48.288;8.726;2022-09-14T13:41:52;5.13;;;4.80;;
2225;SDS011;1119;48.288;8.726;2022-09-14T13:44:24;4.43;;;4.27;;
2225;SDS011;1119;48.288;8.726;2022-09-14T13:47:01;4.97;;;4.77;;
2225;SDS011;1119;48.288;8.726;2022-09-14T13:49:31;4.13;;;4.03;;
2225;SDS011;1119;48.288;8.726;2022-09-14T13:55:07;4.93;;;4.73;;
2225;SDS011;1119;48.288;8.726;2022-09-14T13:58:03;4.10;;;3.90;;
2225;SDS011;1119;48.288;8.726;2022-09-14T14:00:48;4.60;;;4.40;;
2225;SDS011;1119;48.288;8.726;2022-09-14T14:03:33;5.53;;;5.03;;
2225;SDS011;1119;48.288;8.726;2022-09-14T14:06:15;5.20;;;4.90;;
2225;SDS011;1119;48.288;8.726;2022-09-14T14:08:52;5.20;;;5.00;;
2225;SDS011;1119;48.288;8.726;2022-09-14T14:11:26;4.70;;;4.50;;
2225;SDS011;1119;48.288;8.726;2022-09-14T14:14:10;5.00;;;4.80;;
2225;SDS011;1119;48.288;8.726;2022-09-14T14:19:50;4.60;;;4.30;;
2225;SDS011;1119;48.288;8.726;2022-09-14T14:22:19;5.47;;;5.10;;
2225;SDS011;1119;48.288;8.726;2022-09-14T14:27:21;4.90;;;4.53;;
2225;SDS011;1119;48.288;8.726;2022-09-14T14:29:55;4.67;;;4.47;;
2225;SDS011;1119;48.288;8.726;2022-09-14T14:32:23;5.00;;;4.90;;
2225;SDS011;1119;48.288;8.726;2022-09-14T14:34:51;4.50;;;4.40;;
2225;SDS011;1119;48.288;8.726;2022-09-14T14:37:19;4.60;;;4.40;;
2225;SDS011;1119;48.288;8.726;2022-09-14T14:39:47;4.13;;;4.03;;
2225;SDS011;1119;48.288;8.726;2022-09-14T14:42:14;4.53;;;4.33;;
2225;SDS011;1119;48.288;8.726;2022-09-14T14:44:42;4.73;;;4.60;;
2225;SDS011;1119;48.288;8.726;2022-09-14T14:47:10;3.97;;;3.87;;
2225;SDS011;1119;48.288;8.726;2022-09-14T14:49:38;4.00;;;3.90;;
2225;SDS011;1119;48.288;8.726;2022-09-14T14:52:07;4.00;;;3.80;;
2225;SDS011;1119;48.288;8.726;2022-09-14T14:54:35;4.80;;;4.60;;
2225;SDS011;1119;48.288;8.726;2022-09-14T14:57:05;4.40;;;4.20;;
2225;SDS011;1119;48.288;8.726;2022-09-14T14:59:32;3.70;;;3.60;;
2225;SDS011;1119;48.288;8.726;2022-09-14T15:01:59;3.30;;;3.20;;
2225;SDS011;1119;48.288;8.726;2022-09-14T15:04:26;4.87;;;4.50;;
2225;SDS011;1119;48.288;8.726;2022-09-14T15:06:53;4.27;;;4.03;;
2225;SDS011;1119;48.288;8.726;2022-09-14T15:09:23;5.40;;;5.00;;
2225;SDS011;1119;48.288;8.726;2022-09-14T15:11:52;6.70;;;6.20;;
2225;SDS011;1119;48.288;8.726;2022-09-14T15:14:20;5.87;;;5.47;;
2225;SDS011;1119;48.288;8.726;2022-09-14T15:16:49;7.73;;;7.07;;
2225;SDS011;1119;48.288;8.726;2022-09-14T15:19:19;7.47;;;6.97;;
2225;SDS011;1119;48.288;8.726;2022-09-14T15:21:46;5.97;;;5.60;;
2225;SDS011;1119;48.288;8.726;2022-09-14T15:24:13;8.20;;;7.67;;
2225;SDS011;1119;48.288;8.726;2022-09-14T15:26:41;9.23;;;6.30;;
2225;SDS011;1119;48.288;8.726;2022-09-14T15:29:08;8.70;;;8.10;;
2225;SDS011;1119;48.288;8.726;2022-09-14T15:31:37;5.10;;;4.80;;
2225;SDS011;1119;48.288;8.726;2022-09-14T15:34:04;4.67;;;4.43;;
2225;SDS011;1119;48.288;8.726;2022-09-14T15:36:36;5.20;;;4.90;;
2225;SDS011;1119;48.288;8.726;2022-09-14T15:39:05;5.33;;;5.03;;
2225;SDS011;1119;48.288;8.726;2022-09-14T15:41:36;6.93;;;6.50;;
2225;SDS011;1119;48.288;8.726;2022-09-14T15:44:05;4.90;;;4.60;;
2225;SDS011;1119;48.288;8.726;2022-09-14T15:46:32;5.53;;;4.83;;
2225;SDS011;1119;48.288;8.726;2022-09-14T15:49:02;4.73;;;4.53;;
2225;SDS011;1119;48.288;8.726;2022-09-14T15:51:31;4.43;;;4.23;;
2225;SDS011;1119;48.288;8.726;2022-09-14T15:53:59;5.77;;;3.90;;
2225;SDS011;1119;48.288;8.726;2022-09-14T15:56:26;5.00;;;4.73;;
2225;SDS011;1119;48.288;8.726;2022-09-14T15:58:56;3.90;;;3.80;;
2225;SDS011;1119;48.288;8.726;2022-09-14T16:01:25;3.70;;;3.50;;
2225;SDS011;1119;48.288;8.726;2022-09-14T16:03:56;4.47;;;4.17;;
2225;SDS011;1119;48.288;8.726;2022-09-14T16:06:24;4.43;;;4.23;;
2225;SDS011;1119;48.288;8.726;2022-09-14T16:08:52;4.50;;;4.20;;
2225;SDS011;1119;48.288;8.726;2022-09-14T16:11:19;4.20;;;4.07;;
2225;SDS011;1119;48.288;8.726;2022-09-14T16:13:48;4.40;;;4.10;;
2225;SDS011;1119;48.288;8.726;2022-09-14T16:16:16;4.07;;;3.87;;
2225;SDS011;1119;48.288;8.726;2022-09-14T16:18:46;4.13;;;3.93;;